createdAt,value
2022-08-17T00:00:34.420Z,66.50
2022-08-17T00:03:25.837Z,66.50
2022-08-17T00:06:14.791Z,66.50
2022-08-17T00:08:50.833Z,66.50
2022-08-17T00:11:23.638Z,66.40
2022-08-17T00:14:00.533Z,66.10
2022-08-17T00:16:55.971Z,66.90
2022-08-17T00:19:27.026Z,68.00
2022-08-17T00:22:34.028Z,68.20
2022-08-17T00:24:47.766Z,67.60
2022-08-17T00:27:14.950Z,68.50
2022-08-17T00:29:42.313Z,69.30
2022-08-17T00:33:14.003Z,69.30
2022-08-17T00:34:56.843Z,68.60
2022-08-17T00:37:23.924Z,67.70
2022-08-17T00:39:51.103Z,67.70
2022-08-17T00:42:19.389Z,68.50
2022-08-17T00:44:46.607Z,69.60
2022-08-17T00:47:13.740Z,69.90
2022-08-17T00:49:40.874Z,69.30
2022-08-17T00:52:16.763Z,68.70
2022-08-17T00:54:49.169Z,69.50
2022-08-17T00:57:24.631Z,70.10
2022-08-17T01:00:02.953Z,70.70
2022-08-17T01:02:42.163Z,70.80
2022-08-17T01:05:19.500Z,71.00
2022-08-17T01:07:51.045Z,70.90
2022-08-17T01:11:00.533Z,70.80
2022-08-17T01:13:15.089Z,70.60
2022-08-17T01:15:54.788Z,69.90
2022-08-17T01:18:22.189Z,69.50
2022-08-17T01:20:53.808Z,69.60
2022-08-17T01:23:25.143Z,70.50
2022-08-17T01:25:56.551Z,71.00
2022-08-17T01:28:53.206Z,70.90
2022-08-17T01:31:18.615Z,70.00
2022-08-17T01:33:46.036Z,69.50
2022-08-17T01:36:13.551Z,71.00
2022-08-17T01:38:40.955Z,71.40
2022-08-17T01:41:14.810Z,71.30
2022-08-17T01:43:54.025Z,70.90
2022-08-17T01:46:29.865Z,70.50
2022-08-17T01:48:58.340Z,71.00
2022-08-17T01:51:32.857Z,71.30
2022-08-17T01:54:08.844Z,71.40
2022-08-17T01:56:41.138Z,71.30
2022-08-17T01:59:08.976Z,70.60
2022-08-17T02:01:37.205Z,70.50
2022-08-17T02:04:07.159Z,70.80
2022-08-17T02:06:52.894Z,71.20
2022-08-17T02:09:29.742Z,72.20
2022-08-17T02:12:37.400Z,73.20
2022-08-17T02:14:51.551Z,72.80
2022-08-17T02:17:18.735Z,72.00
2022-08-17T02:19:45.955Z,72.40
2022-08-17T02:22:13.281Z,73.70
2022-08-17T02:25:00.131Z,73.20
2022-08-17T02:27:27.895Z,72.40
2022-08-17T02:29:55.069Z,73.10
2022-08-17T02:32:27.970Z,73.70
2022-08-17T02:35:00.270Z,74.30
2022-08-17T02:37:29.829Z,74.70
2022-08-17T02:39:58.690Z,75.00
2022-08-17T02:42:40.952Z,74.60
2022-08-17T02:45:19.984Z,73.70
2022-08-17T02:47:47.641Z,73.00
2022-08-17T02:50:20.188Z,73.10
2022-08-17T02:53:02.046Z,74.00
2022-08-17T02:55:37.422Z,73.30
2022-08-17T02:58:05.213Z,73.00
2022-08-17T03:00:41.035Z,74.20
2022-08-17T03:03:10.901Z,74.20
2022-08-17T03:05:39.878Z,74.10
2022-08-17T03:08:12.943Z,74.00
2022-08-17T03:10:41.480Z,73.50
2022-08-17T03:13:08.944Z,74.50
2022-08-17T03:15:36.222Z,75.10
2022-08-17T03:18:07.736Z,75.50
2022-08-17T03:20:46.164Z,75.60
2022-08-17T03:23:13.454Z,75.20
2022-08-17T03:25:44.094Z,75.10
2022-08-17T03:28:14.895Z,75.70
2022-08-17T03:30:42.006Z,76.00
2022-08-17T03:33:10.559Z,75.60
2022-08-17T03:35:40.497Z,75.00
2022-08-17T03:38:12.769Z,75.00
2022-08-17T03:40:56.328Z,75.60
2022-08-17T03:43:31.471Z,76.20
2022-08-17T03:46:28.979Z,76.20
2022-08-17T03:49:24.671Z,76.40
2022-08-17T03:52:11.718Z,76.20
2022-08-17T03:54:58.321Z,76.40
2022-08-17T03:57:26.100Z,77.00
2022-08-17T03:59:55.321Z,77.40
2022-08-17T04:02:32.596Z,78.00
2022-08-17T04:05:00.640Z,77.00
2022-08-17T04:07:31.197Z,76.00
2022-08-17T04:09:59.525Z,75.30
2022-08-17T04:12:31.604Z,75.20
2022-08-17T04:14:59.098Z,75.00
2022-08-17T04:17:29.494Z,75.80
2022-08-17T04:19:57.542Z,76.70
2022-08-17T04:22:30.276Z,77.70
2022-08-17T04:24:59.451Z,77.90
2022-08-17T04:27:27.253Z,78.00
2022-08-17T04:29:55.952Z,78.10
2022-08-17T04:33:00.767Z,77.30
2022-08-17T04:35:10.868Z,76.60
2022-08-17T04:37:38.019Z,76.30
2022-08-17T04:40:27.540Z,77.00
2022-08-17T04:43:18.594Z,77.40
2022-08-17T04:45:56.397Z,78.00
2022-08-17T04:48:37.472Z,77.60
2022-08-17T04:51:30.781Z,76.90
2022-08-17T04:54:20.845Z,76.40
2022-08-17T04:56:48.641Z,76.00
2022-08-17T04:59:22.001Z,76.50
2022-08-17T05:01:51.784Z,77.70
2022-08-17T05:04:35.015Z,78.40
2022-08-17T05:07:04.400Z,79.10
2022-08-17T05:09:32.042Z,78.60
2022-08-17T05:12:03.457Z,77.60
2022-08-17T05:14:33.175Z,77.50
2022-08-17T05:17:01.974Z,77.10
2022-08-17T05:19:34.560Z,77.20
2022-08-17T05:22:07.716Z,77.30
2022-08-17T05:24:39.864Z,77.40
2022-08-17T05:27:14.321Z,78.20
2022-08-17T05:29:46.372Z,79.10
2022-08-17T05:32:38.392Z,79.20
2022-08-17T05:35:02.181Z,79.20
2022-08-17T05:37:29.315Z,79.00
2022-08-17T05:39:56.589Z,79.10
2022-08-17T05:42:24.251Z,79.50
2022-08-17T05:44:51.492Z,80.00
2022-08-17T05:47:18.748Z,79.90
2022-08-17T05:49:48.879Z,79.90
2022-08-17T05:52:35.000Z,80.50
2022-08-17T05:55:37.476Z,80.60
2022-08-17T05:58:31.319Z,80.50
2022-08-17T06:01:09.617Z,79.80
2022-08-17T06:03:56.269Z,79.60
2022-08-17T06:06:50.467Z,79.60
2022-08-17T06:09:31.537Z,79.60
2022-08-17T06:12:31.283Z,79.70
2022-08-17T06:15:13.013Z,80.30
2022-08-17T06:17:42.331Z,80.70
2022-08-17T06:20:16.212Z,80.50
2022-08-17T06:22:52.106Z,80.20
2022-08-17T06:25:33.487Z,80.20
2022-08-17T06:28:13.935Z,80.30
2022-08-17T06:30:59.758Z,80.20
2022-08-17T06:33:37.944Z,80.10
2022-08-17T06:36:19.940Z,80.00
2022-08-17T06:39:27.403Z,80.00
2022-08-17T06:42:07.590Z,79.80
2022-08-17T06:44:42.320Z,79.90
2022-08-17T06:47:47.610Z,79.70
2022-08-17T06:50:44.965Z,79.80
2022-08-17T06:53:35.598Z,79.60
2022-08-17T06:56:11.664Z,79.90
2022-08-17T06:58:43.386Z,79.60
2022-08-17T07:01:18.344Z,79.30
2022-08-17T07:04:11.789Z,79.70
2022-08-17T07:06:51.238Z,79.70
2022-08-17T07:09:36.084Z,79.90
2022-08-17T07:12:17.814Z,79.70
2022-08-17T07:14:58.771Z,79.40
2022-08-17T07:17:46.391Z,79.30
2022-08-17T07:20:22.675Z,79.20
2022-08-17T07:23:13.863Z,79.00
2022-08-17T07:25:40.956Z,79.20
2022-08-17T07:28:08.411Z,79.30
2022-08-17T07:30:51.293Z,78.90
2022-08-17T07:33:27.684Z,78.80
2022-08-17T07:35:58.178Z,78.60
2022-08-17T07:38:32.309Z,78.40
2022-08-17T07:41:07.607Z,78.60
2022-08-17T07:43:40.969Z,78.40
2022-08-17T07:47:05.447Z,78.50
2022-08-17T07:49:32.527Z,78.40
2022-08-17T07:52:47.339Z,77.90
2022-08-17T07:54:52.657Z,77.60
2022-08-17T07:57:20.156Z,77.40
2022-08-17T08:00:03.194Z,77.10
2022-08-17T08:02:47.640Z,76.80
2022-08-17T08:05:48.725Z,76.50
2022-08-17T08:08:26.504Z,76.20
2022-08-17T08:11:12.559Z,75.50
2022-08-17T08:13:44.018Z,75.00
2022-08-17T08:16:29.636Z,74.70
2022-08-17T08:19:01.097Z,73.80
2022-08-17T08:21:41.137Z,73.20
2022-08-17T08:24:40.188Z,73.20
2022-08-17T08:27:48.767Z,72.40
2022-08-17T08:30:22.061Z,71.80
2022-08-17T08:33:10.805Z,71.50
2022-08-17T08:35:53.742Z,71.50
2022-08-17T08:39:05.342Z,69.80
2022-08-17T08:42:07.733Z,68.90
2022-08-17T08:44:59.848Z,67.60
2022-08-17T08:48:52.755Z,66.30
2022-08-17T08:51:59.450Z,65.00
2022-08-17T08:54:53.255Z,63.70
2022-08-17T08:57:30.773Z,62.80
2022-08-17T09:00:07.270Z,61.90
2022-08-17T09:02:59.395Z,61.50
2022-08-17T09:05:48.508Z,61.30
2022-08-17T09:08:27.472Z,61.10
2022-08-17T09:11:19.882Z,60.40
2022-08-17T09:14:05.690Z,60.00
2022-08-17T09:17:03.756Z,58.50
2022-08-17T09:19:49.916Z,57.60
2022-08-17T09:22:43.059Z,57.00
2022-08-17T09:25:28.422Z,56.50
2022-08-17T09:28:13.453Z,56.60
2022-08-17T09:30:53.283Z,56.30
2022-08-17T09:33:28.659Z,56.40
2022-08-17T09:36:05.713Z,56.30
2022-08-17T09:38:48.423Z,56.00
2022-08-17T09:41:48.505Z,55.50
2022-08-17T09:45:20.793Z,55.10
2022-08-17T09:48:14.417Z,54.80
2022-08-17T09:51:12.791Z,53.80
2022-08-17T09:53:41.172Z,54.20
2022-08-17T09:56:46.049Z,53.30
2022-08-17T09:59:55.611Z,54.30
2022-08-17T10:03:03.326Z,53.70
2022-08-17T10:05:56.946Z,53.70
2022-08-17T10:08:54.776Z,53.40
2022-08-17T10:11:58.149Z,53.20
2022-08-17T10:14:57.484Z,52.60
2022-08-17T10:17:38.308Z,52.70
2022-08-17T10:20:39.322Z,52.30
2022-08-17T10:23:33.173Z,52.10
2022-08-17T10:26:26.712Z,51.10
2022-08-17T10:29:22.600Z,50.60
2022-08-17T10:32:04.228Z,51.40
2022-08-17T10:35:25.761Z,50.10
2022-08-17T10:38:14.757Z,48.40
2022-08-17T10:41:40.569Z,48.60
2022-08-17T10:44:38.575Z,47.20
2022-08-17T10:47:15.169Z,47.90
2022-08-17T10:49:53.992Z,47.30
2022-08-17T10:52:25.983Z,47.90
2022-08-17T10:54:58.212Z,48.80
2022-08-17T10:57:40.740Z,46.90
2022-08-17T11:00:18.820Z,47.20
2022-08-17T11:02:58.068Z,46.90
2022-08-17T11:05:52.283Z,47.40
2022-08-17T11:08:48.719Z,45.60
2022-08-17T11:11:47.536Z,46.80
2022-08-17T11:14:42.468Z,43.80
2022-08-17T11:17:21.511Z,44.00
2022-08-17T11:20:30.455Z,43.30
2022-08-17T11:23:41.260Z,43.60
2022-08-17T11:26:33.529Z,43.20
2022-08-17T11:29:21.633Z,43.30
2022-08-17T11:32:15.094Z,43.00
2022-08-17T11:34:44.735Z,42.90
2022-08-17T11:37:45.109Z,42.10
2022-08-17T11:40:38.606Z,42.50
2022-08-17T11:43:25.344Z,42.50
2022-08-17T11:46:45.784Z,42.40
2022-08-17T11:49:57.830Z,41.40
2022-08-17T11:52:48.738Z,40.80
2022-08-17T11:55:38.421Z,39.80
2022-08-17T11:58:29.626Z,39.10
2022-08-17T12:01:02.622Z,37.30
2022-08-17T12:03:33.320Z,38.00
2022-08-17T12:06:41.444Z,38.60
2022-08-17T12:09:40.958Z,39.30
2022-08-17T12:12:19.518Z,38.50
2022-08-17T12:15:11.533Z,36.70
2022-08-17T12:17:42.979Z,37.20
2022-08-17T12:20:22.119Z,34.90
2022-08-17T12:23:07.436Z,35.80
2022-08-17T12:25:56.425Z,34.60
2022-08-17T12:28:38.832Z,35.30
2022-08-17T12:31:25.763Z,36.10
2022-08-17T12:33:54.202Z,34.30
2022-08-17T12:36:25.407Z,34.90
2022-08-17T12:39:14.139Z,36.00
2022-08-17T12:41:47.558Z,34.90
2022-08-17T12:44:19.463Z,35.60
2022-08-17T12:47:07.748Z,35.60
2022-08-17T12:49:42.275Z,35.00
2022-08-17T12:52:12.355Z,34.60
2022-08-17T12:55:08.206Z,34.80
2022-08-17T12:57:51.494Z,35.00
2022-08-17T13:00:38.189Z,35.80
2022-08-17T13:03:15.651Z,36.30
2022-08-17T13:05:52.821Z,36.40
2022-08-17T13:08:27.899Z,36.60
2022-08-17T13:10:57.647Z,36.50
2022-08-17T13:13:33.012Z,37.00
2022-08-17T13:16:17.935Z,36.20
2022-08-17T13:18:55.421Z,36.30
2022-08-17T13:21:30.656Z,36.90
2022-08-17T13:24:10.796Z,37.40
2022-08-17T13:26:52.246Z,36.70
2022-08-17T13:29:34.829Z,36.60
2022-08-17T13:32:13.566Z,35.70
2022-08-17T13:35:12.516Z,36.00
2022-08-17T13:38:01.375Z,35.70
2022-08-17T13:40:50.128Z,35.10
2022-08-17T13:43:45.012Z,35.80
2022-08-17T13:46:27.698Z,35.60
2022-08-17T13:49:06.451Z,36.00
2022-08-17T13:51:45.489Z,36.30
2022-08-17T13:54:36.804Z,36.60
2022-08-17T13:57:21.532Z,36.70
2022-08-17T13:59:54.125Z,36.40
2022-08-17T14:02:25.831Z,37.10
2022-08-17T14:04:56.603Z,38.00
2022-08-17T14:07:37.820Z,38.30
2022-08-17T14:10:18.218Z,38.60
2022-08-17T14:12:46.521Z,38.90
2022-08-17T14:15:19.352Z,39.20
2022-08-17T14:17:49.651Z,39.30
2022-08-17T14:20:20.744Z,39.10
2022-08-17T14:22:52.949Z,39.30
2022-08-17T14:25:29.492Z,39.40
2022-08-17T14:27:57.303Z,39.50
2022-08-17T14:30:29.711Z,39.70
2022-08-17T14:32:59.239Z,39.80
2022-08-17T14:35:28.279Z,40.40
2022-08-17T14:37:56.304Z,42.40
2022-08-17T14:40:25.302Z,42.80
2022-08-17T14:42:55.304Z,43.20
2022-08-17T14:45:30.155Z,43.10
2022-08-17T14:48:04.182Z,41.80
2022-08-17T14:50:32.112Z,40.50
2022-08-17T14:53:04.670Z,40.80
2022-08-17T14:55:32.725Z,40.70
2022-08-17T14:58:00.255Z,40.80
2022-08-17T15:00:28.662Z,40.40
2022-08-17T15:02:59.127Z,40.20
2022-08-17T15:05:31.984Z,40.70
2022-08-17T15:08:01.245Z,40.90
2022-08-17T15:10:30.440Z,41.00
2022-08-17T15:12:58.494Z,41.30
2022-08-17T15:15:26.583Z,41.60
2022-08-17T15:17:54.879Z,41.30
2022-08-17T15:20:29.953Z,41.40
2022-08-17T15:22:59.142Z,41.60
2022-08-17T15:25:30.580Z,42.00
2022-08-17T15:27:58.859Z,42.40
2022-08-17T15:30:27.279Z,41.20
2022-08-17T15:32:57.012Z,40.90
2022-08-17T15:35:29.896Z,40.70
2022-08-17T15:38:11.034Z,41.10
2022-08-17T15:40:44.052Z,41.40
2022-08-17T15:43:27.914Z,41.80
2022-08-17T15:46:12.559Z,41.00
2022-08-17T15:48:43.424Z,40.40
2022-08-17T15:51:29.885Z,40.70
2022-08-17T15:54:04.521Z,41.00
2022-08-17T15:56:46.464Z,41.50
2022-08-17T15:59:13.543Z,41.90
2022-08-17T16:03:01.779Z,41.60
2022-08-17T16:04:30.913Z,41.30
2022-08-17T16:07:00.138Z,41.30
2022-08-17T16:09:27.796Z,41.30
2022-08-17T16:11:56.338Z,41.50
2022-08-17T16:14:32.553Z,41.50
2022-08-17T16:17:04.710Z,41.80
2022-08-17T16:19:34.380Z,42.00
2022-08-17T16:22:02.664Z,42.20
2022-08-17T16:24:31.549Z,42.60
2022-08-17T16:26:58.946Z,42.50
2022-08-17T16:29:26.145Z,42.70
2022-08-17T16:31:53.621Z,42.90
2022-08-17T16:34:21.394Z,42.80
2022-08-17T16:36:55.796Z,42.80
2022-08-17T16:39:32.771Z,42.60
2022-08-17T16:42:01.384Z,42.40
2022-08-17T16:44:30.731Z,42.60
2022-08-17T16:47:00.099Z,42.90
2022-08-17T16:49:37.381Z,43.00
2022-08-17T16:52:10.681Z,43.20
2022-08-17T16:54:44.087Z,43.30
2022-08-17T16:57:13.878Z,43.30
2022-08-17T16:59:47.773Z,43.40
2022-08-17T17:02:25.292Z,43.50
2022-08-17T17:05:43.791Z,43.50
2022-08-17T17:08:21.097Z,43.70
2022-08-17T17:10:51.110Z,43.80
2022-08-17T17:13:43.821Z,43.90
2022-08-17T17:16:29.300Z,43.80
2022-08-17T17:19:08.328Z,44.00
2022-08-17T17:22:10.573Z,44.10
2022-08-17T17:24:58.672Z,44.40
2022-08-17T17:27:34.953Z,44.50
2022-08-17T17:30:12.497Z,44.60
2022-08-17T17:33:06.258Z,44.70
2022-08-17T17:35:47.837Z,45.00
2022-08-17T17:38:32.368Z,45.00
2022-08-17T17:41:14.517Z,45.30
2022-08-17T17:43:41.973Z,45.50
2022-08-17T17:46:28.568Z,45.90
2022-08-17T17:49:00.483Z,46.10
2022-08-17T17:52:08.014Z,46.10
2022-08-17T17:55:00.440Z,46.30
2022-08-17T17:57:46.982Z,46.50
2022-08-17T18:00:20.781Z,46.80
2022-08-17T18:03:23.257Z,46.60
2022-08-17T18:06:30.261Z,46.60
2022-08-17T18:09:25.362Z,46.80
2022-08-17T18:12:04.632Z,47.00
2022-08-17T18:14:51.008Z,47.10
2022-08-17T18:17:18.374Z,47.30
2022-08-17T18:19:48.386Z,47.50
2022-08-17T18:22:20.904Z,47.60
2022-08-17T18:24:59.209Z,47.50
2022-08-17T18:27:49.948Z,47.50
2022-08-17T18:30:17.149Z,47.80
2022-08-17T18:32:46.695Z,48.00
2022-08-17T18:35:14.476Z,48.00
2022-08-17T18:37:52.066Z,48.10
2022-08-17T18:40:19.753Z,48.10
2022-08-17T18:43:25.598Z,48.20
2022-08-17T18:45:57.538Z,48.20
2022-08-17T18:48:33.791Z,48.20
2022-08-17T18:51:42.282Z,48.50
2022-08-17T18:54:25.415Z,48.70
2022-08-17T18:57:00.610Z,48.90
2022-08-17T18:59:39.065Z,49.00
2022-08-17T19:02:20.705Z,49.30
2022-08-17T19:05:13.332Z,49.70
2022-08-17T19:07:47.611Z,49.80
2022-08-17T19:10:28.917Z,50.30
2022-08-17T19:13:12.809Z,50.30
2022-08-17T19:16:12.215Z,50.70
2022-08-17T19:18:45.894Z,50.90
2022-08-17T19:21:30.552Z,51.00
2022-08-17T19:24:20.888Z,51.10
2022-08-17T19:27:23.748Z,51.40
2022-08-17T19:29:56.544Z,51.60
2022-08-17T19:32:30.395Z,51.60
2022-08-17T19:34:58.148Z,51.70
2022-08-17T19:37:58.655Z,52.10
2022-08-17T19:40:53.935Z,52.20
2022-08-17T19:44:07.798Z,52.00
2022-08-17T19:46:56.055Z,52.30
2022-08-17T19:49:52.413Z,52.60
2022-08-17T19:52:31.884Z,53.30
2022-08-17T19:55:20.569Z,53.50
2022-08-17T19:58:34.181Z,53.90
2022-08-17T20:01:01.996Z,53.80
2022-08-17T20:03:59.497Z,54.00
2022-08-17T20:06:34.462Z,54.40
2022-08-17T20:09:29.637Z,54.60
2022-08-17T20:12:19.020Z,54.80
2022-08-17T20:15:11.378Z,55.10
2022-08-17T20:17:44.582Z,54.90
2022-08-17T20:20:33.910Z,55.40
2022-08-17T20:23:28.507Z,55.10
2022-08-17T20:26:28.156Z,54.90
2022-08-17T20:29:37.638Z,55.60
2022-08-17T20:32:26.881Z,55.70
2022-08-17T20:35:22.493Z,55.70
2022-08-17T20:38:08.640Z,56.40
2022-08-17T20:40:56.671Z,57.20
2022-08-17T20:43:30.043Z,57.10
2022-08-17T20:46:31.104Z,56.70
2022-08-17T20:49:47.296Z,56.60
2022-08-17T20:52:44.810Z,56.70
2022-08-17T20:55:33.891Z,57.20
2022-08-17T20:58:16.273Z,58.00
2022-08-17T21:00:51.731Z,58.30
2022-08-17T21:03:22.667Z,58.60
2022-08-17T21:06:17.699Z,58.70
2022-08-17T21:08:59.013Z,59.00
2022-08-17T21:12:00.028Z,59.30
2022-08-17T21:14:24.866Z,59.40
2022-08-17T21:17:49.955Z,58.80
2022-08-17T21:21:00.874Z,58.60
2022-08-17T21:23:57.383Z,59.10
2022-08-17T21:27:06.068Z,59.60
2022-08-17T21:29:40.257Z,60.00
2022-08-17T21:32:09.647Z,60.30
2022-08-17T21:34:43.956Z,59.90
2022-08-17T21:37:23.645Z,59.90
2022-08-17T21:40:29.583Z,60.50
2022-08-17T21:43:17.424Z,60.90
2022-08-17T21:45:59.338Z,61.20
2022-08-17T21:48:29.356Z,61.70
2022-08-17T21:51:00.857Z,62.20
2022-08-17T21:53:46.834Z,61.30
2022-08-17T21:56:30.346Z,60.70
2022-08-17T21:59:27.246Z,60.20
2022-08-17T22:02:00.429Z,60.10
2022-08-17T22:04:41.006Z,60.40
2022-08-17T22:07:13.744Z,61.20
2022-08-17T22:09:50.151Z,62.30
2022-08-17T22:12:24.380Z,63.10
2022-08-17T22:15:02.377Z,63.30
2022-08-17T22:17:36.599Z,63.80
2022-08-17T22:20:17.363Z,64.10
2022-08-17T22:23:08.986Z,64.30
2022-08-17T22:25:41.662Z,64.40
2022-08-17T22:28:11.831Z,64.70
2022-08-17T22:30:59.038Z,65.00
2022-08-17T22:33:37.494Z,64.80
2022-08-17T22:36:12.617Z,64.60
2022-08-17T22:38:41.971Z,64.90
2022-08-17T22:41:48.210Z,64.60
2022-08-17T22:44:44.856Z,63.90
2022-08-17T22:47:15.116Z,64.00
2022-08-17T22:49:54.046Z,64.80
2022-08-17T22:53:02.499Z,64.70
2022-08-17T22:55:52.612Z,64.10
2022-08-17T22:58:43.126Z,63.80
2022-08-17T23:01:34.851Z,64.40
2022-08-17T23:04:26.894Z,65.70
2022-08-17T23:06:54.194Z,66.10
2022-08-17T23:09:21.902Z,66.20
2022-08-17T23:11:55.468Z,65.10
2022-08-17T23:14:22.739Z,64.60
2022-08-17T23:16:50.918Z,65.20
2022-08-17T23:19:21.774Z,66.00
2022-08-17T23:21:51.040Z,65.90
2022-08-17T23:24:28.125Z,65.30
2022-08-17T23:26:59.720Z,65.40
2022-08-17T23:29:29.393Z,65.50
2022-08-17T23:32:01.386Z,65.60
2022-08-17T23:34:28.844Z,67.50
2022-08-17T23:36:56.825Z,67.90
2022-08-17T23:39:27.436Z,68.10
2022-08-17T23:41:59.052Z,68.10
2022-08-17T23:44:28.912Z,67.80
2022-08-17T23:46:56.360Z,67.00
2022-08-17T23:49:25.269Z,67.40
2022-08-17T23:51:54.774Z,67.50
2022-08-17T23:54:28.421Z,68.00
2022-08-17T23:56:55.783Z,68.20
2022-08-17T23:59:23.968Z,68.30
